Latest Coastal Weather Observations for Kingscote

IDS60701

Issued at 9:21 pm CST Wednesday 26 April 2017 (issued every 10 minutes, with the page automatically refreshed every 10 minutes)

About coastal observations | Map of coastal stations | Coastal observations for SA | Marine services | Other Formats
Station Details ID: 022841 Name: KINGSCOTE AERO Lat: -35.71 Lon: 137.52 Height: 6.23 m
Data from the previous 72 hours. | See also: Recent months at Kingscote
Date/Time
CST
Temp
°C
Wind Pressure Rain since
9am
mm
Weather Cloud Vis
km
Sea
Height
m
Swell
Dir  Spd
kts
Gust
kts
hPa Trend Height
m
Period
s
Dir
26/09:00pm 10.4 W 5 6 1025.9 - 0.0 - Partly cloudy 10 - - - -
26/08:30pm 11.4 W 5 6 1025.9 - 0.0 - Partly cloudy 10 - - - -
26/08:00pm 11.6 WSW 5 5 1025.8 - 0.0 - Partly cloudy 10 - - - -
26/07:30pm 11.9 SSW 4 5 1025.5 - 0.0 - Partly cloudy 10 - - - -
26/07:00pm 11.9 SSW 2 4 1025.3 - 0.0 - Partly cloudy 10 - - - -
26/06:30pm 12.2 SSW 5 7 1025.0 - 0.0 - Partly cloudy 10 - - - -
26/06:00pm 12.4 SSW 5 6 1024.8 - 0.0 - Cloudy 10 - - - -
26/05:30pm 12.9 SSW 7 9 1024.5 - 0.0 - Partly cloudy 10 - - - -
26/05:00pm 13.1 S 7 11 1024.3 - 0.0 - Partly cloudy 10 - - - -
26/04:30pm 13.6 S 11 15 1024.1 - 0.0 - Partly cloudy 10 - - - -
26/04:00pm 13.7 S 9 11 1024.0 - 0.0 - Partly cloudy 10 - - - -
26/03:30pm 13.6 S 10 14 1024.0 - 0.0 - Partly cloudy 10 - - - -
26/03:00pm 13.6 S 15 19 1023.8 - 0.0 - Cloudy 10 - - - -
26/02:30pm 14.5 SSW 13 18 1023.4 - 0.0 - Partly cloudy 10 - - - -
26/02:00pm 14.1 S 13 16 1023.3 - 0.0 - Partly cloudy 10 - - - -
26/01:30pm 13.2 S 18 24 1023.3 - 0.0 - Partly cloudy 10 - - - -
26/01:00pm 14.6 SSW 15 21 1023.2 - 0.0 - Partly cloudy 10 - - - -
26/12:30pm 13.7 S 15 23 1023.2 - 0.0 - Partly cloudy 10 - - - -
26/12:00pm 13.9 S 17 22 1023.3 - 0.0 - Cloudy 10 - - - -
26/11:30am 14.6 S 17 23 1023.3 - 0.0 - Partly cloudy 10 - - - -
26/11:18am 14.0 S 15 25 1023.3 - 0.0 - Partly cloudy 10 - - - -
26/11:00am 13.4 S 16 25 1023.2 - 0.0 - Partly cloudy 10 - - - -
26/10:30am 14.0 S 19 26 1022.8 - 0.0 - Partly cloudy 10 - - - -
26/10:20am 14.1 S 15 25 1022.7 - 0.0 - - 10 - - - -
26/10:00am 13.6 S 16 22 1022.5 - 0.0 - Partly cloudy 10 - - - -
26/09:30am 13.5 SSW 14 19 1022.1 - 0.0 - Partly cloudy 10 - - - -
26/09:00am 12.3 S 10 13 1022.0 - 6.0 - Mostly clear 10 - - - -
26/08:30am 12.0 SSW 15 22 1021.6 - 6.0 - Partly cloudy 10 - - - -
26/08:00am 10.9 SSW 12 17 1021.1 - 6.0 - Partly cloudy 10 - - - -
26/07:36am 10.3 SSW 15 25 1020.8 - 6.0 - Partly cloudy 10 - - - -
26/07:30am 10.0 SSW 15 20 1020.7 - 6.0 - Partly cloudy 10 - - - -
26/07:00am 10.4 SSW 14 23 1020.0 - 6.0 - Partly cloudy 10 - - - -
26/06:30am 9.5 SSW 8 10 1019.6 - 6.0 - Partly cloudy 10 - - - -
26/06:00am 10.1 SSW 13 19 1019.0 - 6.0 - Mostly clear 10 - - - -
26/05:30am 10.0 SSW 15 21 1018.5 - 6.0 - Partly cloudy 10 - - - -
26/05:00am 10.1 SSW 18 29 1018.0 - 6.0 - Partly cloudy 10 - - - -
26/04:45am 10.6 SSW 16 29 1017.8 - 6.0 - Partly cloudy 10 - - - -
26/04:30am 10.4 SSW 15 21 1017.4 - 6.0 - Partly cloudy 10 - - - -
26/04:00am 9.9 SSW 14 21 1017.1 - 6.0 - Partly cloudy 10 - - - -
26/03:30am 9.5 SW 14 19 1016.7 - 6.0 - Partly cloudy 10 - - - -
26/03:03am 9.6 SSW 16 27 1016.7 - 5.8 - Partly cloudy 10 - - - -
26/03:00am 10.0 SSW 14 20 1016.8 - 5.8 Recent precip. Mostly cloudy 10 - - - -
26/02:30am 9.6 SSW 17 24 1016.3 - 5.8 - Partly cloudy 10 - - - -
26/02:02am 11.1 SSW 15 27 1015.7 - 5.6 - Partly cloudy 10 - - - -
26/02:00am 11.1 SSW 13 25 1015.7 - 5.6 - Partly cloudy 10 - - - -
26/01:30am 10.0 SW 14 20 1015.4 - 5.6 - Partly cloudy 10 - - - -
26/01:27am 9.9 SW 15 25 1015.5 - 5.6 - Partly cloudy 10 - - - -
26/01:00am 10.6 SSW 19 27 1014.9 - 5.2 - Partly cloudy 10 - - - -
26/12:51am 10.8 SW 16 27 1014.9 - 5.2 - Partly cloudy 10 - - - -
26/12:30am 10.8 SW 14 19 1014.6 - 5.2 - Partly cloudy 9 - - - -
26/12:10am 11.9 SW 17 30 1014.4 - 4.4 - Partly cloudy 10 - - - -
26/12:00am 12.2 SW 18 25 1014.2 - 4.4 - Mostly clear 10 - - - -
 
Date/Time
CST
Temp
°C
Wind Pressure Rain since
9am
mm
Weather Cloud Vis
km
Sea
Height
m
Swell
Dir  Spd
kts
Gust
kts
hPa Trend Height
m
Period
s
Dir
25/11:30pm 12.3 SW 14 20 1013.8 - 4.4 - Partly cloudy 10 - - - -
25/11:00pm 12.5 SW 15 25 1013.6 - 4.4 - Partly cloudy 10 - - - -
25/10:30pm 12.5 SW 16 28 1013.5 - 4.4 - Partly cloudy 10 - - - -
25/10:23pm 12.8 SW 15 28 1013.5 - 4.4 - Partly cloudy 10 - - - -
25/10:00pm 12.6 SW 15 24 1013.4 - 4.4 - Partly cloudy 10 - - - -
25/09:30pm 12.7 SW 14 19 1013.2 - 4.4 - Partly cloudy 10 - - - -
25/09:26pm 12.7 SW 14 19 1013.2 - 4.4 - Partly cloudy 10 - - - -
25/09:00pm 13.1 SW 12 18 1013.0 - 4.0 Recent precip. Cloudy 10 - - - -
25/08:54pm 13.1 WSW 13 17 1012.9 - 4.0 - Partly cloudy 10 - - - -
25/08:30pm 13.2 W 12 15 1012.2 - 2.6 - Partly cloudy 10 - - - -
25/08:00pm 13.7 W 12 22 1012.5 - 1.6 - Partly cloudy 10 - - - -
25/07:30pm 14.5 W 12 17 1012.1 - 1.6 - Partly cloudy 10 - - - -
25/07:00pm 14.3 WNW 8 12 1012.1 - 1.6 - Partly cloudy 10 - - - -
25/06:30pm 14.5 NW 7 9 1012.0 - 1.6 - - 10 - - - -
25/06:00pm 14.6 W 9 11 1012.1 - 1.6 - Cloudy 10 - - - -
25/05:30pm 15.1 WSW 13 18 1012.0 - 1.6 - Partly cloudy 10 - - - -
25/05:00pm 16.1 W 14 22 1011.5 - 1.6 - Partly cloudy 10 - - - -
25/04:30pm 16.7 W 12 17 1011.2 - 1.6 - Partly cloudy 10 - - - -
25/04:00pm 17.1 W 11 15 1011.4 - 1.6 - Partly cloudy 10 - - - -
25/03:30pm 17.0 W 9 11 1011.4 - 1.6 - Partly cloudy 10 - - - -
25/03:00pm 16.3 WNW 9 13 1011.5 - 1.6 - Cloudy 10 - - - -
25/02:30pm 15.5 WSW 12 23 1011.7 - 1.6 - Partly cloudy 9 - - - -
25/02:14pm 16.4 WSW 10 22 1011.7 - 1.6 - Partly cloudy 10 - - - -
25/02:00pm 16.0 W 8 11 1011.8 - 1.6 - Partly cloudy 10 - - - -
25/01:45pm 15.4 W 7 11 1011.9 - 1.6 - Partly cloudy 10 - - - -
25/01:33pm 14.7 W 13 19 1012.3 - 1.6 - Partly cloudy 5 - - - -
25/01:32pm 14.6 W 14 19 1012.3 - 1.6 - Partly cloudy 6 - - - -
25/01:30pm 15.1 W 13 19 1012.4 - 1.4 - Partly cloudy 7 - - - -
25/01:18pm 15.0 W 12 17 1012.5 - 1.2 - Partly cloudy 5 - - - -
25/01:00pm 15.8 W 14 21 1012.6 - 0.8 - Partly cloudy 10 - - - -
25/12:30pm 18.9 WSW 11 16 1012.2 - 0.0 - Partly cloudy 10 - - - -
25/12:00pm 18.8 WNW 13 16 1012.5 - 0.0 - Cloudy 10 - - - -
25/11:30am 19.5 WSW 9 13 1012.8 - 0.0 - Partly cloudy 10 - - - -
25/11:00am 19.4 WSW 10 15 1013.3 - 0.0 - Partly cloudy 10 - - - -
25/10:30am 19.3 WSW 9 13 1013.5 - 0.0 - Partly cloudy 10 - - - -
25/10:00am 18.8 WSW 10 14 1013.8 - 0.0 - Cloudy 10 - - - -
25/09:30am 17.3 WSW 15 20 1013.9 - 0.0 - Partly cloudy 10 - - - -
25/09:00am 16.0 W 10 13 1014.0 - 5.0 - Mostly cloudy 10 - - - -
25/08:30am 15.5 W 9 12 1013.9 - 5.0 - Partly cloudy 10 - - - -
25/08:00am 14.5 CALM 0 0 1013.6 - 5.0 - Partly cloudy 10 - - - -
25/07:30am 13.0 CALM 0 0 1013.3 - 5.0 - Partly cloudy 10 - - - -
25/07:00am 12.3 CALM 0 0 1012.9 - 5.0 - - 10 - - - -
25/06:30am 12.4 CALM 0 0 1012.7 - 5.0 - - 10 - - - -
25/06:00am 11.7 CALM 0 0 1012.5 - 5.0 - Mostly cloudy 10 - - - -
25/05:51am 11.5 CALM 0 0 1012.4 - 5.0 - Partly cloudy 10 - - - -
25/05:30am 10.6 CALM 0 0 1012.4 - 5.0 - Partly cloudy 0.9 - - - -
25/05:16am 11.1 CALM 0 0 1012.3 - 5.0 - - 3 - - - -
25/05:00am 12.1 CALM 0 0 1012.3 - 5.0 - - 10 - - - -
25/04:30am 11.7 CALM 0 0 1012.0 - 5.0 - Partly cloudy 10 - - - -
25/04:00am 11.7 CALM 0 0 1011.8 - 5.0 - Partly cloudy 10 - - - -
25/03:30am 10.5 CALM 0 0 1011.6 - 5.0 - Partly cloudy 10 - - - -
25/03:13am 10.2 CALM 0 0 1011.5 - 5.0 - Partly cloudy 10 - - - -
25/03:00am 10.1 CALM 0 0 1011.5 - 5.0 - Cloudy 3 - - - -
25/02:42am 10.2 CALM 0 0 1011.5 - 5.0 - Partly cloudy 5 - - - -
25/02:30am 11.6 CALM 0 0 1011.6 - 5.0 - Partly cloudy 10 - - - -
25/02:00am 11.8 CALM 0 0 1011.8 - 5.0 - - 10 - - - -
25/01:30am 11.5 CALM 0 0 1011.9 - 5.0 - - 10 - - - -
25/01:00am 11.2 CALM 0 0 1012.0 - 5.0 - - 10 - - - -
25/12:30am 11.6 CALM 0 0 1012.2 - 5.0 - - 10 - - - -
25/12:00am 12.2 CALM 0 0 1012.5 - 5.0 - - 10 - - - -
 
Date/Time
CST
Temp
°C
Wind Pressure Rain since
9am
mm
Weather Cloud Vis
km
Sea
Height
m
Swell
Dir  Spd
kts
Gust
kts
hPa Trend Height
m
Period
s
Dir
24/11:30pm 12.8 W 6 7 1012.6 - 5.0 - - 10 - - - -
24/11:00pm 13.5 WSW 5 6 1012.8 - 5.0 - - 10 - - - -
24/10:30pm 14.8 W 8 10 1013.1 - 5.0 - - 10 - - - -
24/10:00pm 15.7 W 10 13 1013.1 - 5.0 - Partly cloudy 10 - - - -
24/09:30pm 16.3 WSW 8 11 1013.2 - 5.0 - Partly cloudy 10 - - - -
24/09:00pm 16.4 W 7 9 1013.0 - 5.0 - Cloudy 10 - - - -
24/08:30pm 16.5 W 6 8 1012.9 - 5.0 - Cloudy 10 - - - -
24/08:00pm 16.4 WSW 7 8 1013.1 - 5.0 - Partly cloudy 10 - - - -
24/07:46pm 16.4 WSW 7 9 1013.1 - 5.0 - Partly cloudy 10 - - - -
24/07:30pm 16.3 W 4 7 1013.1 - 5.0 - Partly cloudy 10 - - - -
24/07:00pm 16.8 CALM 0 0 1012.9 - 5.0 - Partly cloudy 10 - - - -
24/06:47pm 16.8 CALM 0 0 1013.0 - 5.0 - Partly cloudy 10 - - - -
24/06:30pm 16.9 CALM 0 0 1012.8 - 5.0 - Partly cloudy 10 - - - -
24/06:00pm 17.1 S 1 3 1012.6 - 5.0 - Cloudy 10 - - - -
24/05:30pm 17.4 S 5 7 1012.3 - 5.0 - Partly cloudy 10 - - - -
24/05:00pm 17.9 SSE 5 6 1012.1 - 5.0 - Partly cloudy 10 - - - -
24/04:33pm 18.1 SSE 5 6 1012.2 - 5.0 - Partly cloudy 10 - - - -
24/04:30pm 18.0 SSE 5 6 1012.3 - 5.0 - Partly cloudy 10 - - - -
24/04:00pm 18.0 S 6 8 1012.4 - 5.0 - Partly cloudy 10 - - - -
24/03:54pm 17.9 SSW 8 11 1012.4 - 5.0 - Partly cloudy 10 - - - -
24/03:30pm 19.0 WNW 9 13 1012.4 - 5.0 - Partly cloudy 10 - - - -
24/03:06pm 18.2 NW 9 12 1012.5 - 5.0 - Partly cloudy 10 - - - -
24/03:00pm 18.1 NW 10 14 1012.5 - 5.0 Rain Cloudy 10 - - - -
24/02:47pm 18.3 NW 9 11 1012.7 - 3.4 - Partly cloudy 5 - - - -
24/02:30pm 18.6 NW 10 13 1012.5 - 1.8 - Partly cloudy 10 - - - -
24/02:18pm 18.6 NW 10 15 1012.5 - 1.8 - Partly cloudy 10 - - - -
24/02:13pm 18.5 NW 11 16 1012.6 - 1.8 - Partly cloudy 10 - - - -
24/02:00pm 18.3 NW 13 17 1012.9 - 1.8 - Partly cloudy 5 - - - -
24/01:56pm 18.8 NNW 12 17 1013.0 - 1.2 - Cloudy 5 - - - -
24/01:30pm 19.8 NNW 9 14 1013.1 - 0.0 - Partly cloudy 10 - - - -
24/01:10pm 20.4 NNW 10 15 1013.2 - 0.0 - Partly cloudy 10 - - - -
24/01:00pm 19.8 N 10 14 1013.4 - 0.0 - Partly cloudy 10 - - - -
24/12:30pm 21.0 N 9 12 1013.9 - 0.0 - Partly cloudy 10 - - - -
24/12:01pm 20.4 N 9 13 1014.8 - 0.0 - Partly cloudy 10 - - - -
24/12:00pm 20.5 N 9 13 1014.8 - 0.0 - Cloudy 10 - - - -
24/11:31am 19.6 NE 9 12 1015.0 - 0.0 - Partly cloudy 10 - - - -
24/11:30am 19.7 NE 9 12 1015.1 - 0.0 - Partly cloudy 10 - - - -
24/11:00am 17.8 E 1 4 1015.9 - 0.0 - Partly cloudy 10 - - - -
24/10:30am 16.7 CALM 0 0 1016.4 - 0.0 - Partly cloudy 10 - - - -
24/10:00am 16.2 CALM 0 0 1016.8 - 0.0 - Partly cloudy 10 - - - -
24/09:30am 15.7 CALM 0 0 1016.9 - 0.0 - Partly cloudy 10 - - - -
24/09:00am 15.1 CALM 0 0 1016.8 - 0.2 - Mostly cloudy 10 - - - -
24/08:30am 13.9 CALM 0 0 1017.1 - 0.2 - Partly cloudy 10 - - - -
24/08:00am 12.8 CALM 0 0 1017.2 - 0.2 - Partly cloudy 10 - - - -
24/07:30am 12.0 CALM 0 0 1017.2 - 0.2 - Partly cloudy 10 - - - -
24/07:00am 11.6 CALM 0 0 1017.5 - 0.2 - Partly cloudy 10 - - - -
24/06:30am 11.8 CALM 0 0 1017.4 - 0.2 - Partly cloudy 10 - - - -
24/06:08am 11.9 CALM 0 0 1017.5 - 0.2 - Partly cloudy 10 - - - -
24/06:00am 11.8 CALM 0 0 1017.6 - 0.2 - Cloudy 9 - - - -
24/05:38am 11.4 CALM 0 0 1017.5 - 0.2 - Partly cloudy 8 - - - -
24/05:30am 11.4 CALM 0 0 1017.5 - 0.2 - Partly cloudy 6 - - - -
24/05:25am 11.1 CALM 0 0 1017.5 - 0.2 - Partly cloudy 5 - - - -
24/05:00am 11.0 CALM 0 0 1017.5 - 0.2 - Partly cloudy 5 - - - -
24/04:56am 11.0 CALM 0 0 1017.5 - 0.2 - Partly cloudy 6 - - - -
24/04:30am 11.4 CALM 0 0 1017.9 - 0.2 - Partly cloudy 0.7 - - - -
24/04:00am 10.9 CALM 0 0 1018.3 - 0.2 - Partly cloudy 0.3 - - - -
24/03:30am 11.3 CALM 0 0 1018.2 - 0.2 - Cloudy 0.2 - - - -
24/03:00am 11.3 CALM 0 0 1018.5 - 0.2 - Mostly cloudy 0.2 - - - -
24/02:30am 11.1 CALM 0 0 1018.7 - 0.2 - Cloudy 0.1 - - - -
24/02:00am 12.2 CALM 0 0 1018.9 - 0.2 - Partly cloudy 1 - - - -
24/01:30am 12.2 CALM 0 4 1019.2 - 0.2 - Partly cloudy 0.1 - - - -
24/01:00am 12.2 SW 4 6 1019.7 - 0.2 - Partly cloudy 0.1 - - - -
24/12:30am 11.8 W 5 6 1020.3 - 0.0 - Partly cloudy 0.1 - - - -
24/12:00am 13.2 W 1 4 1020.4 - 0.0 - Cloudy 0.1 - - - -
 
Date/Time
CST
Temp
°C
Wind Pressure Rain since
9am
mm
Weather Cloud Vis
km
Sea
Height
m
Swell
Dir  Spd
kts
Gust
kts
hPa Trend Height
m
Period
s
Dir
23/11:30pm 13.1 WSW 4 5 1020.7 - 0.0 - Partly cloudy 0.2 - - - -
23/11:00pm 12.6 SSW 4 7 1020.8 - 0.0 - - 1 - - - -
23/10:30pm 14.0 WSW 5 6 1021.0 - 0.0 - Partly cloudy 4 - - - -
23/10:00pm 14.3 W 6 9 1021.1 - 0.0 - Partly cloudy 2 - - - -
23/09:30pm 14.4 CALM 0 0 1021.0 - 0.0 - Partly cloudy 4 - - - -
23/09:28pm 14.4 CALM 0 0 1021.0 - 0.0 - Partly cloudy 5 - - - -

Other Formats:

Comma delimited format used in spreadsheet applications
http://www.bom.gov.au/fwo/IDS60701/IDS60701.95807.axf

JavaScript Object Notation format (JSON) in row-major order
http://www.bom.gov.au/fwo/IDS60701/IDS60701.95807.json